Pagina principale
METAR-TAF:

METAR-TAF

Aeroporti :

Tours, Francia

latitudine: 47-27N, longitudine: 000-43E, altezza: 108 m

Osservazione

Il bollettino è stato emesso 36 minuti fa, alle 09:30 UTC
Vento 9 kt da est, variando fra nord-est e est/sud-est
Temperature 29°C
Umidità 58%
Pressione 1019 hPa
Visibilità 10 km o più
nessuna nube inferiore a 1500 m e nessun cumulonembo

METAR: LFOT 260930Z AUTO 08009KT 040V110 CAVOK 29/20 Q1019 NOSIG

Ora: 12:06 (10:06 UTC)

Previsione

Il bollettino è stato emesso 5 ore e 6 minuti fa, alle 05:00 UTC
Previsione valida dal 26 alle 06 UTC al 27 alle 06 UTC
Vento 10 kt da nord-est
Visibilità 10 km o più
nessuna nube inferiore a 1500 m e nessun cumulonembo

TAF: LFOT 260500Z 2606/2706 05010KT CAVOK

Osservazioni e previsioni meteorologiche di più di 4000 aeroporti (messaggi METAR e TAF).

Le stazioni disponibili sono rappresentate dai dischi gialli e rossi sulla carta.

Puntare il mouse per vedere il nome della stazione.

Clicca sopra per visualizzare le osservazioni e previsioni meteorologiche.

Per cambiare la mappa : fare clic sui pulsanti verdi con una croce nera per ingrandire, il pulsante verde con un trattino per diminuire, o sulla freccia verde per le mappe adiacenti.


METAR-TAF: